Time;durP1;ratioP1;P1;durP2;ratioP2;P2;SDS_P1;SDS_P2;PMS_P1;PMS_P2;Temp;Humidity;BMP_temperature;BMP_pressure;BME280_temperature;BME280_humidity;BME280_pressure;Samples;Min_cycle;Max_cycle;Signal;HPM_P1;HPM_P2
2022/01/05 00:01:33;;;;;;;;;253.25;225.50;11.60;60.80;;;;;;5034531;28;8757;-65
2022/01/05 00:03:59;;;;;;;;;247.00;221.75;11.30;61.60;;;;;;5034520;28;8770;-66
2022/01/05 00:06:24;;;;;;;;;269.75;242.25;11.10;62.50;;;;;;5034417;28;8884;-66
2022/01/05 00:08:50;;;;;;;;;269.75;238.75;11.40;61.70;;;;;;5043829;28;8807;-66
2022/01/05 00:11:16;;;;;;;;;272.25;243.00;11.20;61.70;;;;;;5045353;28;8813;-66
2022/01/05 00:13:43;;;;;;;;;255.25;230.50;11.20;62.00;;;;;;5043507;28;8779;-66
2022/01/05 00:16:09;;;;;;;;;197.50;183.25;10.80;63.00;;;;;;5038491;28;8888;-66
2022/01/05 00:18:35;;;;;;;;;185.50;172.75;11.10;62.50;;;;;;5048631;28;8841;-65
2022/01/05 00:21:03;;;;;;;;;161.25;157.00;10.90;63.20;;;;;;5052824;28;8787;-65
2022/01/05 00:23:29;;;;;;;;;164.25;150.25;11.20;62.10;;;;;;5048033;28;8799;-65
2022/01/05 00:25:55;;;;;;;;;173.50;159.25;11.20;61.90;;;;;;5036825;28;8891;-65
2022/01/05 00:28:21;;;;;;;;;161.25;147.00;11.20;61.50;;;;;;5044273;28;8827;-66
2022/01/05 00:30:46;;;;;;;;;173.75;159.75;11.10;62.40;;;;;;5034903;28;8789;-68
2022/01/05 00:33:14;;;;;;;;;143.25;124.75;11.10;62.10;;;;;;5038894;28;8848;-65
2022/01/05 00:35:41;;;;;;;;;131.00;113.50;10.80;63.00;;;;;;5053253;28;8764;-65
2022/01/05 00:38:07;;;;;;;;;140.00;126.00;10.90;62.40;;;;;;5052868;28;8815;-66
2022/01/05 00:40:33;;;;;;;;;134.25;120.75;11.10;62.10;;;;;;5052128;28;8770;-66
2022/01/05 00:42:58;;;;;;;;;124.00;113.00;11.30;61.40;;;;;;5053979;28;8771;-66
2022/01/05 00:45:25;;;;;;;;;132.50;120.50;11.50;60.80;;;;;;5053963;28;8793;-66
2022/01/05 00:47:50;;;;;;;;;117.25;106.75;11.40;60.80;;;;;;5054197;28;8780;-66
2022/01/05 00:50:16;;;;;;;;;118.75;102.75;11.30;61.10;;;;;;5053901;28;8767;-66
2022/01/05 00:52:42;;;;;;;;;100.25;89.75;11.10;61.90;;;;;;5054157;28;8763;-66
2022/01/05 00:55:08;;;;;;;;;102.00;91.50;11.10;61.60;;;;;;5054233;28;8771;-66
2022/01/05 00:57:34;;;;;;;;;92.00;84.50;11.30;61.20;;;;;;5054068;28;8794;-66
2022/01/05 00:59:59;;;;;;;;;92.00;78.75;11.30;61.10;;;;;;5053812;28;8852;-66
2022/01/05 01:02:25;;;;;;;;;86.25;78.75;11.20;61.20;;;;;;5053850;28;8751;-66
2022/01/05 01:04:51;;;;;;;;;87.50;77.25;11.20;61.50;;;;;;5054085;28;8771;-66
2022/01/05 01:07:17;;;;;;;;;89.50;77.25;11.00;62.00;;;;;;5053989;28;8787;-66
2022/01/05 01:09:43;;;;;;;;;94.50;86.00;10.60;63.70;;;;;;5053777;28;8767;-66
2022/01/05 01:12:09;;;;;;;;;98.50;92.25;10.50;64.30;;;;;;5053779;28;8764;-66
2022/01/05 01:14:35;;;;;;;;;100.50;91.75;10.70;63.60;;;;;;5053998;28;8763;-66
2022/01/05 01:17:01;;;;;;;;;111.75;97.50;10.70;63.30;;;;;;5053555;28;8827;-66
2022/01/05 01:19:27;;;;;;;;;113.75;104.00;10.90;62.70;;;;;;5053678;28;8771;-66
2022/01/05 01:21:53;;;;;;;;;119.25;111.50;10.90;62.30;;;;;;5053725;28;8759;-66
2022/01/05 01:24:18;;;;;;;;;150.50;136.75;10.90;62.10;;;;;;5054806;28;8798;-66
2022/01/05 01:26:44;;;;;;;;;153.50;143.75;11.10;61.20;;;;;;5057035;28;8771;-66
2022/01/05 01:29:10;;;;;;;;;143.50;132.25;11.30;60.80;;;;;;5057307;28;8795;-66
2022/01/05 01:31:36;;;;;;;;;156.00;146.00;11.40;60.40;;;;;;5057472;28;8763;-66
2022/01/05 01:34:02;;;;;;;;;145.25;136.50;11.20;60.60;;;;;;5057340;28;8810;-66
2022/01/05 01:36:27;;;;;;;;;139.25;128.25;11.40;60.10;;;;;;5057252;28;8771;-66
2022/01/05 01:38:53;;;;;;;;;129.75;120.25;11.60;59.30;;;;;;5057678;28;9796;-66
2022/01/05 01:41:19;;;;;;;;;100.25;93.25;11.50;59.30;;;;;;5057039;28;9389;-66
2022/01/05 01:43:45;;;;;;;;;99.00;89.25;11.20;59.70;;;;;;5056925;28;8793;-66
2022/01/05 01:46:11;;;;;;;;;80.75;64.25;11.10;60.60;;;;;;5057456;28;8817;-66
2022/01/05 01:48:36;;;;;;;;;92.25;80.00;11.10;60.50;;;;;;5056879;28;8806;-66
2022/01/05 01:51:03;;;;;;;;;85.75;74.25;11.20;60.10;;;;;;5056755;28;8783;-66
2022/01/05 01:53:28;;;;;;;;;83.75;69.50;11.00;60.80;;;;;;5056067;28;8783;-66
2022/01/05 01:55:57;;;;;;;;;88.25;74.25;11.10;60.40;;;;;;5056673;28;9393;-66
2022/01/05 01:58:26;;;;;;;;;88.25;75.75;11.40;59.70;;;;;;5056616;28;8814;-66
2022/01/05 02:00:52;;;;;;;;;85.25;71.25;11.30;59.50;;;;;;5056628;28;8775;-66
2022/01/05 02:03:18;;;;;;;;;88.50;76.50;11.50;59.00;;;;;;5056855;28;8848;-66
2022/01/05 02:05:43;;;;;;;;;89.25;75.25;11.40;59.20;;;;;;5056512;28;8771;-66
2022/01/05 02:08:09;;;;;;;;;86.25;70.00;11.50;59.10;;;;;;5056929;28;8807;-66
2022/01/05 02:10:36;;;;;;;;;78.25;61.75;11.40;59.00;;;;;;5056712;28;8778;-66
2022/01/05 02:13:02;;;;;;;;;74.75;58.75;11.60;58.50;;;;;;5056402;28;8806;-66
2022/01/05 02:15:27;;;;;;;;;68.75;52.00;11.20;60.00;;;;;;5046419;28;8797;-66
2022/01/05 02:20:26;;;;;;;;;67.50;55.00;11.30;59.50;;;;;;5036667;28;8947;-66
2022/01/05 02:22:53;;;;;;;;;63.50;52.50;11.20;59.70;;;;;;5036375;28;8801;-66
2022/01/05 02:25:19;;;;;;;;;63.00;51.50;11.50;58.30;;;;;;5036333;28;8758;-65
2022/01/05 02:27:46;;;;;;;;;56.00;45.75;11.10;60.30;;;;;;5036232;28;8801;-66
2022/01/05 02:30:17;;;;;;;;;57.00;45.50;10.60;61.60;;;;;;5036463;28;8770;-65
2022/01/05 02:32:43;;;;;;;;;56.00;47.50;10.30;62.90;;;;;;5036193;28;8773;-65
2022/01/05 02:35:10;;;;;;;;;54.75;46.25;10.10;64.10;;;;;;5036128;28;8762;-65
2022/01/05 02:37:43;;;;;;;;;49.50;43.00;9.80;66.60;;;;;;5036338;28;8940;-65
2022/01/05 02:40:11;;;;;;;;;58.50;49.00;9.70;66.10;;;;;;5036020;28;8765;-65
2022/01/05 02:42:37;;;;;;;;;61.50;48.25;9.60;66.70;;;;;;5035979;28;8773;-65
2022/01/05 02:45:03;;;;;;;;;57.50;43.25;9.80;65.60;;;;;;5036095;28;8912;-66
2022/01/05 02:47:29;;;;;;;;;47.75;40.75;10.30;63.70;;;;;;5036102;28;8893;-66
2022/01/05 02:49:59;;;;;;;;;39.25;36.75;10.40;63.00;;;;;;5035865;28;8778;-65
2022/01/05 02:52:25;;;;;;;;;48.75;39.25;10.20;63.90;;;;;;5036062;28;8781;-65
2022/01/05 02:54:51;;;;;;;;;51.75;43.75;10.30;63.40;;;;;;5035696;28;8796;-65
2022/01/05 02:57:17;;;;;;;;;49.50;38.75;10.60;62.40;;;;;;5035865;28;8793;-65
2022/01/05 02:59:42;;;;;;;;;50.50;42.00;11.00;61.00;;;;;;5035852;28;8761;-65
2022/01/05 03:02:08;;;;;;;;;51.75;41.25;11.30;59.60;;;;;;5035566;28;8765;-65
2022/01/05 03:04:34;;;;;;;;;51.75;42.75;10.70;61.60;;;;;;5035568;28;8847;-65
2022/01/05 03:07:00;;;;;;;;;50.25;41.00;10.30;63.00;;;;;;5035366;28;8876;-65
2022/01/05 03:09:26;;;;;;;;;57.00;46.75;10.60;61.90;;;;;;5051286;28;8765;-65
2022/01/05 03:11:52;;;;;;;;;50.25;42.25;10.60;62.30;;;;;;5035595;28;8797;-65
2022/01/05 03:14:19;;;;;;;;;48.25;42.00;10.30;62.70;;;;;;5035440;28;8799;-65
2022/01/05 03:16:45;;;;;;;;;53.25;42.25;10.50;62.80;;;;;;5035546;28;8786;-65
2022/01/05 03:19:11;;;;;;;;;45.50;39.00;10.50;62.50;;;;;;5035230;28;9478;-65
2022/01/05 03:21:37;;;;;;;;;47.00;41.75;10.40;62.90;;;;;;5035277;28;8773;-65
2022/01/05 03:24:03;;;;;;;;;50.50;43.00;10.30;63.40;;;;;;5035129;28;9426;-65
2022/01/05 03:26:29;;;;;;;;;40.00;35.00;10.50;62.00;;;;;;5035021;28;8851;-65
2022/01/05 03:28:55;;;;;;;;;52.75;43.50;11.00;60.10;;;;;;5034961;28;8855;-65
2022/01/05 03:31:20;;;;;;;;;45.25;39.50;11.30;59.20;;;;;;5035208;28;8781;-65
2022/01/05 03:33:46;;;;;;;;;46.50;37.75;11.10;59.50;;;;;;5035250;28;8780;-65
2022/01/05 03:36:12;;;;;;;;;55.00;44.75;11.10;59.40;;;;;;5035041;28;9439;-66
2022/01/05 03:38:38;;;;;;;;;49.25;41.75;10.50;61.60;;;;;;5034722;28;8898;-65
2022/01/05 03:41:04;;;;;;;;;52.00;43.75;10.40;62.40;;;;;;5035103;28;8837;-65
2022/01/05 03:43:29;;;;;;;;;48.00;41.75;10.00;64.00;;;;;;5034846;28;8844;-65
2022/01/05 03:45:55;;;;;;;;;45.25;39.25;9.80;65.00;;;;;;5034776;28;8758;-65
2022/01/05 03:48:21;;;;;;;;;46.50;39.50;9.70;65.60;;;;;;5034341;28;8807;-66
2022/01/05 03:50:48;;;;;;;;;48.25;38.75;10.50;62.50;;;;;;5034697;28;8831;-66
2022/01/05 03:53:14;;;;;;;;;47.25;42.50;10.40;62.50;;;;;;5034679;28;8790;-65
2022/01/05 03:55:42;;;;;;;;;44.75;39.50;10.70;61.20;;;;;;5034675;28;8766;-66
2022/01/05 03:58:10;;;;;;;;;40.50;35.75;10.60;61.80;;;;;;5034560;28;8810;-65
2022/01/05 04:00:40;;;;;;;;;40.75;37.00;10.70;61.10;;;;;;5034847;28;8777;-65
2022/01/05 04:03:06;;;;;;;;;37.25;26.25;10.70;62.20;;;;;;5034578;28;8773;-66
2022/01/05 04:05:32;;;;;;;;;34.25;28.75;10.90;60.50;;;;;;5034518;28;8773;-65
2022/01/05 04:07:58;;;;;;;;;25.75;25.00;11.00;60.40;;;;;;5034633;28;8927;-66
2022/01/05 04:10:25;;;;;;;;;32.25;32.25;10.60;61.10;;;;;;5034697;28;8770;-65
2022/01/05 04:12:50;;;;;;;;;29.50;28.75;10.70;60.70;;;;;;5034437;28;8788;-66
2022/01/05 04:15:17;;;;;;;;;38.00;34.75;10.90;60.10;;;;;;5034625;28;8761;-65
2022/01/05 04:17:43;;;;;;;;;37.75;34.50;11.10;59.50;;;;;;5034294;28;8809;-65
2022/01/05 04:20:11;;;;;;;;;38.00;35.00;11.10;59.90;;;;;;5034666;28;8766;-65
2022/01/05 04:22:37;;;;;;;;;35.50;32.50;11.00;60.30;;;;;;5034357;28;8770;-65
2022/01/05 04:25:03;;;;;;;;;39.00;36.00;10.70;61.10;;;;;;5033300;28;8808;-66
2022/01/05 04:27:29;;;;;;;;;40.75;36.00;10.60;61.20;;;;;;5034094;28;8840;-65
2022/01/05 04:29:55;;;;;;;;;45.25;37.50;10.60;61.70;;;;;;5034282;28;9424;-65
2022/01/05 04:32:21;;;;;;;;;41.75;34.25;11.00;60.10;;;;;;5034234;28;8912;-66
2022/01/05 04:34:47;;;;;;;;;41.00;37.00;11.00;60.40;;;;;;5034244;28;8758;-65
2022/01/05 04:37:12;;;;;;;;;36.25;35.25;11.40;59.00;;;;;;5034254;28;9609;-65
2022/01/05 04:39:38;;;;;;;;;46.50;39.00;11.10;60.20;;;;;;5034189;28;9411;-65
2022/01/05 04:42:05;;;;;;;;;47.25;40.25;10.60;61.80;;;;;;5033139;28;8770;-65
2022/01/05 04:44:31;;;;;;;;;44.00;39.00;10.90;61.20;;;;;;5034153;28;8758;-65
2022/01/05 04:46:57;;;;;;;;;42.75;38.00;10.90;61.40;;;;;;5034183;28;8793;-65
2022/01/05 04:49:23;;;;;;;;;54.75;45.00;10.70;61.90;;;;;;5034169;28;8784;-65
2022/01/05 04:51:50;;;;;;;;;49.00;42.00;10.90;61.40;;;;;;5034438;28;8758;-65
2022/01/05 04:54:16;;;;;;;;;45.75;39.50;11.20;60.30;;;;;;5034311;28;8855;-66
2022/01/05 04:56:41;;;;;;;;;47.75;39.00;11.60;58.90;;;;;;5033735;28;8798;-66
2022/01/05 04:59:07;;;;;;;;;44.25;38.75;11.90;57.90;;;;;;5034695;28;8778;-65
2022/01/05 05:01:33;;;;;;;;;53.50;43.00;12.30;56.60;;;;;;5038127;28;8920;-65
2022/01/05 05:03:59;;;;;;;;;51.50;42.25;12.00;57.30;;;;;;5037844;28;8786;-66
2022/01/05 05:06:25;;;;;;;;;30.75;29.25;11.80;58.10;;;;;;5037872;28;8742;-66
2022/01/05 05:08:50;;;;;;;;;35.00;35.00;11.30;60.20;;;;;;5038135;28;8802;-65
2022/01/05 05:11:16;;;;;;;;;48.00;40.50;11.00;61.20;;;;;;5037925;28;8808;-65
2022/01/05 05:13:42;;;;;;;;;50.50;42.25;10.90;61.90;;;;;;5037604;28;8782;-65
2022/01/05 05:16:08;;;;;;;;;55.75;44.50;11.30;60.50;;;;;;5037899;28;8778;-65
2022/01/05 05:18:34;;;;;;;;;52.75;42.50;11.00;61.80;;;;;;5037463;28;8802;-66
2022/01/05 05:21:01;;;;;;;;;52.50;40.75;11.00;61.90;;;;;;5037544;28;8762;-65
2022/01/05 05:23:27;;;;;;;;;54.25;43.75;10.90;62.00;;;;;;5037516;28;8777;-65
2022/01/05 05:25:53;;;;;;;;;56.50;46.50;11.20;61.30;;;;;;5037440;28;8758;-66
2022/01/05 05:28:19;;;;;;;;;53.00;43.75;11.20;61.10;;;;;;5037264;28;8844;-66
2022/01/05 05:30:44;;;;;;;;;60.50;48.00;11.60;59.70;;;;;;5037328;28;8754;-66
2022/01/05 05:33:10;;;;;;;;;58.50;48.50;11.60;59.60;;;;;;5037301;28;8922;-66
2022/01/05 05:35:37;;;;;;;;;55.75;46.00;11.60;59.70;;;;;;5037281;28;8761;-66
2022/01/05 05:38:03;;;;;;;;;64.50;50.00;11.30;61.00;;;;;;5037228;28;9371;-65
2022/01/05 05:40:29;;;;;;;;;69.50;54.00;11.10;62.10;;;;;;5037154;28;8773;-65
2022/01/05 05:42:55;;;;;;;;;64.25;52.50;10.80;63.10;;;;;;5037274;28;8792;-65
2022/01/05 05:45:20;;;;;;;;;56.50;46.75;11.20;61.50;;;;;;5037325;28;8782;-65
2022/01/05 05:47:46;;;;;;;;;54.00;45.25;11.00;62.10;;;;;;5037245;28;8786;-65
2022/01/05 05:50:12;;;;;;;;;56.25;47.00;10.90;62.60;;;;;;5036913;28;9400;-65
2022/01/05 05:52:38;;;;;;;;;59.25;48.75;11.00;62.00;;;;;;5036924;28;8837;-65
2022/01/05 05:55:04;;;;;;;;;60.50;49.00;10.80;63.40;;;;;;5036873;28;8758;-65
2022/01/05 05:57:30;;;;;;;;;60.00;48.50;11.00;62.50;;;;;;5037017;28;8794;-65
2022/01/05 05:59:56;;;;;;;;;53.75;44.00;11.00;62.70;;;;;;5036695;28;9481;-65
2022/01/05 06:02:22;;;;;;;;;39.00;36.25;10.90;63.10;;;;;;5036684;28;8782;-65
2022/01/05 06:04:48;;;;;;;;;50.50;39.00;10.80;63.30;;;;;;5036614;28;8769;-65
2022/01/05 06:07:13;;;;;;;;;47.75;41.75;10.90;62.50;;;;;;5036534;28;8813;-65
2022/01/05 06:09:39;;;;;;;;;46.25;38.00;11.00;62.20;;;;;;5036335;28;8766;-65
2022/01/05 06:12:05;;;;;;;;;49.50;39.25;10.90;62.20;;;;;;5035661;28;8804;-65
2022/01/05 06:14:31;;;;;;;;;51.25;41.75;10.70;64.00;;;;;;5036674;28;8816;-65
2022/01/05 06:16:57;;;;;;;;;52.25;44.25;10.60;63.80;;;;;;5036550;28;8813;-65
2022/01/05 06:19:22;;;;;;;;;64.50;50.75;10.80;63.90;;;;;;5036642;28;8765;-65
2022/01/05 06:21:50;;;;;;;;;61.00;49.50;10.60;64.10;;;;;;5036589;28;8766;-65
2022/01/05 06:24:16;;;;;;;;;70.50;54.25;10.80;63.40;;;;;;5036271;28;8770;-65
2022/01/05 06:26:42;;;;;;;;;69.25;56.75;10.60;64.40;;;;;;5035975;28;8851;-66
2022/01/05 06:29:08;;;;;;;;;63.50;50.00;10.90;63.40;;;;;;5036476;28;8790;-65
2022/01/05 06:31:34;;;;;;;;;61.75;51.00;11.60;60.80;;;;;;5036239;28;8778;-65
2022/01/05 06:34:00;;;;;;;;;61.75;49.25;11.70;60.30;;;;;;5035806;28;8792;-65
2022/01/05 06:36:26;;;;;;;;;56.00;46.25;11.40;61.50;;;;;;5036218;28;8900;-65
2022/01/05 06:38:52;;;;;;;;;64.50;50.75;11.10;62.30;;;;;;5036401;28;8864;-65
2022/01/05 06:41:17;;;;;;;;;54.25;43.75;11.30;61.60;;;;;;5036143;28;8784;-65
2022/01/05 06:43:43;;;;;;;;;63.00;50.75;11.10;63.20;;;;;;5036163;28;8823;-65
2022/01/05 06:46:09;;;;;;;;;55.00;46.25;11.00;63.70;;;;;;5034763;28;8858;-65
2022/01/05 06:48:34;;;;;;;;;56.00;48.00;11.10;63.30;;;;;;5036106;28;8793;-65
2022/01/05 06:51:00;;;;;;;;;51.25;42.25;11.20;62.90;;;;;;5036005;28;8792;-65
2022/01/05 06:53:27;;;;;;;;;49.75;42.50;11.30;62.80;;;;;;5035975;28;8785;-65
2022/01/05 06:55:53;;;;;;;;;50.00;40.00;11.40;62.70;;;;;;5035769;28;8788;-65
2022/01/05 06:58:19;;;;;;;;;52.25;43.75;11.30;63.20;;;;;;5035616;28;9427;-65
2022/01/05 07:00:45;;;;;;;;;55.25;45.50;11.10;64.30;;;;;;5035510;28;8785;-65
2022/01/05 07:03:11;;;;;;;;;60.75;48.50;11.10;64.50;;;;;;5035559;28;8765;-65
2022/01/05 07:05:38;;;;;;;;;56.00;45.25;11.10;64.60;;;;;;5035497;28;8769;-65
2022/01/05 07:08:05;;;;;;;;;51.25;42.75;11.20;64.30;;;;;;5034518;28;8809;-65
2022/01/05 07:10:31;;;;;;;;;49.50;41.00;11.40;63.50;;;;;;5035652;28;8867;-65
2022/01/05 07:12:56;;;;;;;;;50.25;40.25;11.60;63.10;;;;;;5035674;28;8830;-65
2022/01/05 07:15:23;;;;;;;;;52.00;43.25;11.80;62.90;;;;;;5035556;28;8770;-65
2022/01/05 07:17:49;;;;;;;;;50.25;42.50;12.10;60.80;;;;;;5035527;28;9450;-65
2022/01/05 07:20:16;;;;;;;;;51.00;43.00;12.40;59.60;;;;;;5035489;28;8765;-65
2022/01/05 07:22:43;;;;;;;;;51.25;43.25;12.40;59.60;;;;;;5037921;28;8782;-65
2022/01/05 07:25:09;;;;;;;;;62.50;51.00;12.70;58.70;;;;;;5044319;28;8771;-65
2022/01/05 07:27:36;;;;;;;;;77.00;62.50;12.90;58.20;;;;;;5054907;28;8905;-65
2022/01/05 07:30:04;;;;;;;;;83.25;70.00;13.30;56.90;;;;;;5054946;28;8791;-65
2022/01/05 07:32:30;;;;;;;;;88.00;81.00;13.10;56.80;;;;;;5047257;28;8843;-65
2022/01/05 07:34:55;;;;;;;;;76.00;63.50;13.10;57.10;;;;;;5035184;28;9505;-65
2022/01/05 07:37:21;;;;;;;;;75.50;61.75;13.00;57.40;;;;;;5034796;28;8849;-64
2022/01/05 07:39:47;;;;;;;;;76.00;60.50;12.90;58.20;;;;;;5034755;28;8785;-65
2022/01/05 07:42:13;;;;;;;;;78.25;61.00;13.10;57.90;;;;;;5034851;28;8758;-67
2022/01/05 07:44:39;;;;;;;;;67.50;54.50;13.30;57.00;;;;;;5035094;28;8766;-64
2022/01/05 07:47:06;;;;;;;;;80.50;63.50;13.60;56.10;;;;;;5034747;28;8789;-63
2022/01/05 07:49:32;;;;;;;;;68.25;55.00;13.80;55.80;;;;;;5043990;28;8817;-64
2022/01/05 07:51:57;;;;;;;;;57.25;48.25;13.80;55.50;;;;;;5054729;28;8863;-65
2022/01/05 07:54:23;;;;;;;;;64.00;51.75;13.40;57.10;;;;;;5041727;28;8790;-66
2022/01/05 07:56:49;;;;;;;;;61.50;50.75;13.10;58.00;;;;;;5034523;28;8774;-64
2022/01/05 07:59:15;;;;;;;;;51.75;43.75;13.00;58.70;;;;;;5034850;28;8777;-64
2022/01/05 08:01:40;;;;;;;;;55.75;45.00;12.70;60.00;;;;;;5034513;28;9502;-65
2022/01/05 08:04:06;;;;;;;;;54.75;45.25;12.60;60.40;;;;;;5034623;28;8778;-65
2022/01/05 08:06:32;;;;;;;;;53.25;44.50;12.60;61.10;;;;;;5034699;28;8872;-65
2022/01/05 08:09:00;;;;;;;;;54.00;43.50;12.50;61.20;;;;;;5034185;28;9012;-64
2022/01/05 08:11:25;;;;;;;;;55.00;45.75;12.60;60.90;;;;;;5034695;28;9416;-65
2022/01/05 08:13:52;;;;;;;;;59.50;48.25;12.80;60.40;;;;;;5033391;28;8786;-64
2022/01/05 08:16:19;;;;;;;;;56.50;47.25;12.70;60.80;;;;;;5034606;28;8788;-65
2022/01/05 08:18:46;;;;;;;;;56.50;48.00;12.70;60.70;;;;;;5034563;28;8948;-65
2022/01/05 08:21:12;;;;;;;;;62.00;50.00;12.50;61.30;;;;;;5034533;28;9467;-66
2022/01/05 08:23:38;;;;;;;;;66.75;54.00;12.80;60.10;;;;;;5034212;28;8887;-65
2022/01/05 08:26:05;;;;;;;;;68.25;53.50;13.00;59.60;;;;;;5034057;28;8794;-64
2022/01/05 08:28:32;;;;;;;;;65.50;52.00;13.40;58.30;;;;;;5033011;28;8856;-64
2022/01/05 08:30:59;;;;;;;;;62.50;49.25;13.90;57.30;;;;;;5034446;28;8843;-65
2022/01/05 08:33:25;;;;;;;;;65.25;50.25;13.80;56.80;;;;;;5035462;28;8769;-65
2022/01/05 08:35:51;;;;;;;;;67.50;54.25;13.50;58.40;;;;;;5038272;28;8773;-65
2022/01/05 08:38:17;;;;;;;;;67.75;54.25;13.90;57.30;;;;;;5037644;28;9653;-67
2022/01/05 08:40:43;;;;;;;;;72.00;56.75;14.20;56.60;;;;;;5038292;28;8885;-67
2022/01/05 08:43:10;;;;;;;;;70.00;53.75;14.00;57.30;;;;;;5038138;28;8754;-70
2022/01/05 08:45:37;;;;;;;;;67.25;53.50;14.10;57.30;;;;;;5038054;28;8758;-67
2022/01/05 08:48:03;;;;;;;;;73.00;55.00;14.30;56.70;;;;;;5037915;28;8805;-68
2022/01/05 08:50:31;;;;;;;;;76.50;59.25;14.60;56.00;;;;;;5038236;28;8872;-67
2022/01/05 08:52:58;;;;;;;;;79.00;62.75;14.90;55.40;;;;;;5037379;28;8766;-66
2022/01/05 08:55:33;;;;;;;;;74.50;59.50;15.10;55.10;;;;;;5038211;28;8782;-66
2022/01/05 08:58:00;;;;;;;;;76.25;65.75;15.30;54.70;;;;;;5038135;28;8950;-66
2022/01/05 09:00:26;;;;;;;;;74.00;58.00;15.30;54.70;;;;;;5037806;28;8770;-66
2022/01/05 09:02:53;;;;;;;;;72.00;57.75;15.30;55.40;;;;;;5037657;28;8820;-65
2022/01/05 09:05:19;;;;;;;;;63.75;52.00;15.80;54.40;;;;;;5037816;28;8789;-66
2022/01/05 09:07:45;;;;;;;;;61.50;50.25;15.60;55.00;;;;;;5037504;28;8825;-66
2022/01/05 09:10:11;;;;;;;;;51.25;41.50;15.70;55.30;;;;;;5037826;28;8758;-66
2022/01/05 09:12:37;;;;;;;;;47.25;41.25;15.60;55.50;;;;;;5037843;28;8843;-66
2022/01/05 09:15:05;;;;;;;;;50.50;41.50;15.60;55.50;;;;;;5037538;28;8782;-65
2022/01/05 09:17:31;;;;;;;;;62.50;51.00;16.20;53.50;;;;;;5037470;28;8817;-70
2022/01/05 09:19:57;;;;;;;;;55.75;46.25;16.30;53.80;;;;;;5037434;28;8777;-63
2022/01/05 09:22:23;;;;;;;;;51.50;43.00;16.50;54.60;;;;;;5037116;28;8784;-65
2022/01/05 09:24:50;;;;;;;;;51.75;44.00;16.70;54.00;;;;;;5038817;28;8789;-64
2022/01/05 09:27:17;;;;;;;;;58.00;48.00;16.50;53.30;;;;;;5040938;28;8829;-63
2022/01/05 09:29:43;;;;;;;;;60.50;48.00;16.80;53.30;;;;;;5048590;28;8783;-62
2022/01/05 09:32:09;;;;;;;;;50.50;42.00;17.00;52.70;;;;;;5039352;28;8788;-62
2022/01/05 09:34:40;;;;;;;;;53.00;44.00;17.20;52.00;;;;;;5050583;28;8771;-62
2022/01/05 09:37:17;;;;;;;;;50.25;42.50;17.40;51.30;;;;;;5056685;28;8818;-63
2022/01/05 09:42:27;;;;;;;;;49.75;40.25;17.50;52.20;;;;;;5057034;28;8747;-67
2022/01/05 09:44:54;;;;;;;;;52.50;42.75;17.50;51.80;;;;;;5056080;28;8793;-66
2022/01/05 09:47:42;;;;;;;;;53.00;43.00;17.70;51.30;;;;;;5057162;28;8770;-72
2022/01/05 09:50:10;;;;;;;;;55.75;45.00;17.40;51.90;;;;;;5057085;28;8763;-66
2022/01/05 09:52:43;;;;;;;;;52.75;42.50;17.20;53.20;;;;;;5057028;28;8767;-69
2022/01/05 09:55:11;;;;;;;;;45.50;36.25;17.50;52.10;;;;;;5057053;28;8787;-64
2022/01/05 09:57:43;;;;;;;;;48.25;40.50;17.90;51.70;;;;;;5056583;28;8815;-62
2022/01/05 10:00:11;;;;;;;;;52.50;42.75;18.00;51.10;;;;;;5056961;28;9434;-65
2022/01/05 10:02:37;;;;;;;;;58.25;48.75;18.30;51.40;;;;;;5056935;28;8770;-66
2022/01/05 10:05:05;;;;;;;;;64.00;52.00;18.10;51.70;;;;;;5056836;28;8814;-66
2022/01/05 10:07:33;;;;;;;;;50.50;43.50;18.50;50.20;;;;;;5056532;28;8856;-69
2022/01/05 10:09:59;;;;;;;;;54.00;43.50;19.10;48.60;;;;;;5056377;28;8798;-68
2022/01/05 10:12:25;;;;;;;;;58.50;47.00;19.20;48.00;;;;;;5049023;28;8773;-67
2022/01/05 10:14:51;;;;;;;;;57.25;45.75;19.50;47.10;;;;;;5052921;28;8771;-66
2022/01/05 10:17:24;;;;;;;;;47.00;39.50;20.10;46.50;;;;;;5056428;28;8803;-66
2022/01/05 10:20:00;;;;;;;;;55.50;47.00;21.20;44.80;;;;;;5056612;28;8773;-63
2022/01/05 10:22:27;;;;;;;;;49.33;40.67;23.20;42.60;;;;;;5056467;28;8870;-61
2022/01/05 10:24:56;;;;;;;;;38.67;34.00;27.90;35.80;;;;;;5056068;28;8782;-61
2022/01/05 10:27:25;;;;;;;;;49.00;41.33;31.20;31.00;;;;;;5055755;28;8838;-65
2022/01/05 10:30:05;;;;;;;;;47.33;41.00;32.00;28.40;;;;;;5056042;28;8763;-68
2022/01/05 10:32:33;;;;;;;;;53.67;45.00;32.30;28.10;;;;;;5056365;28;8864;-66
2022/01/05 10:35:13;;;;;;;;;48.33;41.33;33.70;27.20;;;;;;5056104;28;8856;-68
2022/01/05 10:37:42;;;;;;;;;39.67;34.67;35.20;25.80;;;;;;5055901;28;8908;-69
2022/01/05 10:40:19;;;;;;;;;34.00;32.67;35.80;24.20;;;;;;5056074;28;8779;-73
2022/01/05 10:42:47;;;;;;;;;27.00;27.00;32.00;25.70;;;;;;5055960;28;11522;-65
2022/01/05 10:45:19;;;;;;;;;33.00;31.67;31.00;28.40;;;;;;5055643;28;11577;-65
2022/01/05 10:48:08;;;;;;;;;15.67;15.67;30.80;27.70;;;;;;5055942;28;11495;-64
2022/01/05 10:50:35;;;;;;;;;43.67;38.00;29.80;28.30;;;;;;5047727;28;8766;-63
2022/01/05 10:53:01;;;;;;;;;32.67;31.33;32.10;28.10;;;;;;5055502;28;8980;-63
2022/01/05 10:55:30;;;;;;;;;39.00;36.00;32.70;26.30;;;;;;5055583;28;11512;-63
2022/01/05 10:57:58;;;;;;;;;36.33;34.00;32.20;26.00;;;;;;5054400;28;12217;-63
2022/01/05 11:00:52;;;;;;;;;37.67;34.67;28.50;28.80;;;;;;5055341;28;11529;-66
2022/01/05 11:03:41;;;;;;;;;41.33;36.00;26.90;30.80;;;;;;5053392;28;8801;-68
2022/01/05 11:06:18;;;;;;;;;44.00;38.00;26.70;31.80;;;;;;5055378;28;8813;-69
2022/01/05 11:08:56;;;;;;;;;44.33;38.33;26.60;31.20;;;;;;5055515;28;9449;-65
2022/01/05 11:11:33;;;;;;;;;44.33;38.33;26.90;31.20;;;;;;5055519;28;9453;-64
2022/01/05 11:13:59;;;;;;;;;48.00;41.00;25.70;32.40;;;;;;5055124;28;8767;-65
2022/01/05 11:16:31;;;;;;;;;50.33;42.67;23.70;35.40;;;;;;5055175;28;8863;-65
2022/01/05 11:19:18;;;;;;;;;39.00;36.00;22.80;36.80;;;;;;5055195;28;9610;-68
2022/01/05 11:22:14;;;;;;;;;48.00;41.33;22.60;37.50;;;;;;5055228;28;8806;-67
2022/01/05 11:24:41;;;;;;;;;57.33;48.00;22.30;38.30;;;;;;5054990;28;8774;-67
2022/01/05 11:27:14;;;;;;;;;60.33;50.67;22.30;38.80;;;;;;5053687;28;8811;-67
2022/01/05 11:29:40;;;;;;;;;60.50;50.50;22.00;39.10;;;;;;5037467;28;8793;-66
2022/01/05 11:32:09;;;;;;;;;60.25;50.50;21.60;40.40;;;;;;5041216;28;8786;-67
2022/01/05 11:34:36;;;;;;;;;65.25;53.75;21.10;42.00;;;;;;5044606;28;8881;-66
2022/01/05 11:37:02;;;;;;;;;66.25;56.00;21.00;42.30;;;;;;5039235;28;8774;-66
2022/01/05 11:39:30;;;;;;;;;73.75;60.25;21.10;42.10;;;;;;5046046;28;8755;-66
2022/01/05 11:41:59;;;;;;;;;74.00;61.25;20.80;42.30;;;;;;5034931;28;8769;-66
2022/01/05 11:44:29;;;;;;;;;74.75;63.00;20.70;43.60;;;;;;5034853;28;8777;-69
2022/01/05 11:46:56;;;;;;;;;81.50;78.25;20.40;44.20;;;;;;5037617;28;8785;-63
2022/01/05 11:49:28;;;;;;;;;82.75;73.00;20.00;45.10;;;;;;5042301;28;9566;-64
2022/01/05 11:51:59;;;;;;;;;75.25;70.50;20.00;45.00;;;;;;5049002;28;8952;-64
2022/01/05 11:54:32;;;;;;;;;81.00;75.75;19.70;46.00;;;;;;5054814;28;8755;-65
2022/01/05 11:57:13;;;;;;;;;73.25;67.00;19.30;46.90;;;;;;5046481;28;8781;-66
2022/01/05 11:59:41;;;;;;;;;75.00;62.50;19.20;47.20;;;;;;5047424;28;8840;-66
2022/01/05 12:02:10;;;;;;;;;71.50;61.00;19.20;47.30;;;;;;5053517;28;8851;-66
2022/01/05 12:04:56;;;;;;;;;69.00;56.50;19.20;47.00;;;;;;5047413;28;8779;-66
2022/01/05 12:07:47;;;;;;;;;62.75;51.50;19.40;46.50;;;;;;5043036;28;8871;-66
2022/01/05 12:10:21;;;;;;;;;72.00;59.25;19.60;45.90;;;;;;5034240;28;8794;-66
2022/01/05 12:13:04;;;;;;;;;73.25;62.00;19.70;45.80;;;;;;5036416;28;8831;-66
2022/01/05 12:15:42;;;;;;;;;70.75;58.00;19.40;46.70;;;;;;5042790;28;8880;-65
2022/01/05 12:18:08;;;;;;;;;70.25;61.00;19.60;46.50;;;;;;5046847;28;9445;-65
2022/01/05 12:20:40;;;;;;;;;74.50;63.50;20.00;46.10;;;;;;5041481;28;8775;-67
2022/01/05 12:23:34;;;;;;;;;71.75;61.25;20.00;46.20;;;;;;5046484;28;9433;-66
2022/01/05 12:26:07;;;;;;;;;81.50;75.75;19.90;46.20;;;;;;5054203;28;8787;-65
2022/01/05 12:28:36;;;;;;;;;82.25;79.25;20.40;46.60;;;;;;5053387;28;9433;-66
2022/01/05 12:31:05;;;;;;;;;76.50;69.75;21.00;43.80;;;;;;5053967;28;8830;-66
2022/01/05 12:33:49;;;;;;;;;72.75;59.50;20.60;44.00;;;;;;5053483;28;8889;-66
2022/01/05 12:36:36;;;;;;;;;73.00;61.00;20.50;44.70;;;;;;5047908;28;8945;-70
2022/01/05 12:39:10;;;;;;;;;72.25;61.50;20.40;45.00;;;;;;5038457;28;8810;-71
2022/01/05 12:41:45;;;;;;;;;73.50;61.00;20.60;44.90;;;;;;5051180;28;8775;-70
2022/01/05 12:44:18;;;;;;;;;70.50;58.75;20.30;45.10;;;;;;5040752;28;8790;-71